createdAt,value
2019-05-06T00:00:14.005Z,6.58
2019-05-06T00:03:09.858Z,3.80
2019-05-06T00:06:06.426Z,5.35
2019-05-06T00:09:03.822Z,6.08
2019-05-06T00:12:01.170Z,7.17
2019-05-06T00:14:57.712Z,5.80
2019-05-06T00:17:54.247Z,6.28
2019-05-06T00:20:50.147Z,5.35
2019-05-06T00:23:50.859Z,4.00
2019-05-06T00:26:57.638Z,6.28
2019-05-06T00:29:54.991Z,4.50
2019-05-06T00:32:51.053Z,4.22
2019-05-06T00:35:47.381Z,6.50
2019-05-06T00:38:45.388Z,7.28
2019-05-06T00:41:43.380Z,5.42
2019-05-06T00:44:40.047Z,4.62
2019-05-06T00:47:36.726Z,7.15
2019-05-06T00:50:34.872Z,5.25
2019-05-06T00:53:34.599Z,6.22
2019-05-06T00:56:29.520Z,4.75
2019-05-06T00:59:26.905Z,5.15
2019-05-06T01:02:23.519Z,6.40
2019-05-06T01:05:20.053Z,5.17
2019-05-06T01:08:16.600Z,8.83
2019-05-06T01:11:14.384Z,4.87
2019-05-06T01:14:16.917Z,6.75
2019-05-06T01:17:13.414Z,4.80
2019-05-06T01:20:10.568Z,4.50
2019-05-06T01:23:05.990Z,6.08
2019-05-06T01:26:04.190Z,5.37
2019-05-06T01:28:59.996Z,5.17
2019-05-06T01:31:57.059Z,6.15
2019-05-06T01:34:53.795Z,5.78
2019-05-06T01:37:54.561Z,6.45
2019-05-06T01:41:03.994Z,5.67
2019-05-06T01:44:01.481Z,5.97
2019-05-06T01:46:58.989Z,8.30
2019-05-06T01:49:55.656Z,7.20
2019-05-06T01:52:51.344Z,5.28
2019-05-06T01:55:46.813Z,5.53
2019-05-06T01:58:43.954Z,5.37
2019-05-06T02:01:39.426Z,5.78
2019-05-06T02:04:35.419Z,7.85
2019-05-06T02:07:34.788Z,7.25
2019-05-06T02:10:29.877Z,5.40
2019-05-06T02:13:26.302Z,6.45
2019-05-06T02:16:23.927Z,7.08
2019-05-06T02:19:19.204Z,6.45
2019-05-06T02:22:21.453Z,7.25
2019-05-06T02:25:21.686Z,6.72
2019-05-06T02:28:17.541Z,7.70
2019-05-06T02:31:35.154Z,7.30
2019-05-06T02:34:37.193Z,6.92
2019-05-06T02:37:37.046Z,10.03
2019-05-06T02:40:33.439Z,6.87
2019-05-06T02:43:28.697Z,7.58
2019-05-06T02:46:24.378Z,9.33
2019-05-06T02:49:44.311Z,9.73
2019-05-06T02:52:43.762Z,7.05
2019-05-06T02:55:37.874Z,7.42
2019-05-06T02:58:34.298Z,7.15
2019-05-06T03:01:30.238Z,8.60
2019-05-06T03:04:25.038Z,13.00
2019-05-06T03:07:23.324Z,13.50
2019-05-06T03:10:24.278Z,12.80
2019-05-06T03:13:23.333Z,9.45
2019-05-06T03:16:16.887Z,10.40
2019-05-06T03:19:13.506Z,11.38
2019-05-06T03:22:28.718Z,9.75
2019-05-06T03:25:28.320Z,10.65
2019-05-06T03:28:23.685Z,9.88
2019-05-06T03:31:19.673Z,11.78
2019-05-06T03:34:36.489Z,10.68
2019-05-06T03:37:16.896Z,7.80
2019-05-06T03:40:13.854Z,9.35
2019-05-06T03:43:09.413Z,8.70
2019-05-06T03:46:27.289Z,10.32
2019-05-06T03:49:23.864Z,11.80
2019-05-06T03:52:22.928Z,8.10
2019-05-06T03:55:17.674Z,10.78
2019-05-06T03:58:14.360Z,8.63
2019-05-06T04:01:13.215Z,9.90
2019-05-06T04:04:09.339Z,9.78
2019-05-06T04:07:06.054Z,9.85
2019-05-06T04:10:03.437Z,10.72
2019-05-06T04:13:04.187Z,9.50
2019-05-06T04:16:07.547Z,10.20
2019-05-06T04:19:16.945Z,14.03
2019-05-06T04:22:33.041Z,12.40
2019-05-06T04:25:52.720Z,10.18
2019-05-06T04:28:49.550Z,9.98
2019-05-06T04:31:46.149Z,10.78
2019-05-06T04:34:43.139Z,10.60
2019-05-06T04:37:39.349Z,8.68
2019-05-06T04:40:35.003Z,10.55
2019-05-06T04:43:33.458Z,11.97
2019-05-06T04:46:28.612Z,10.78
2019-05-06T04:49:24.804Z,11.75
2019-05-06T04:52:22.865Z,10.05
2019-05-06T04:55:22.654Z,9.70
2019-05-06T04:58:18.794Z,9.98
2019-05-06T05:01:16.628Z,10.43
2019-05-06T05:04:24.586Z,11.70
2019-05-06T05:07:12.816Z,9.28
2019-05-06T05:10:17.799Z,13.90
2019-05-06T05:13:40.175Z,11.85
2019-05-06T05:16:53.392Z,13.10
2019-05-06T05:19:49.562Z,11.50
2019-05-06T05:22:46.384Z,9.78
2019-05-06T05:25:43.291Z,10.88
2019-05-06T05:28:39.987Z,8.78
2019-05-06T05:31:36.692Z,10.95
2019-05-06T05:34:40.234Z,11.97
2019-05-06T05:37:30.283Z,10.08
2019-05-06T05:40:26.360Z,11.50
2019-05-06T05:43:34.805Z,12.35
2019-05-06T05:46:32.900Z,10.70
2019-05-06T05:49:45.864Z,11.68
2019-05-06T05:56:39.965Z,11.10
2019-05-06T05:59:36.344Z,11.88
2019-05-06T06:02:33.352Z,13.55
2019-05-06T06:05:30.078Z,12.40
2019-05-06T06:08:26.084Z,10.53
2019-05-06T06:11:37.668Z,11.05
2019-05-06T06:14:55.341Z,10.48
2019-05-06T06:18:03.019Z,11.97
2019-05-06T06:21:21.252Z,11.50
2019-05-06T06:24:22.420Z,12.15
2019-05-06T06:27:18.440Z,14.25
2019-05-06T06:30:14.836Z,14.75
2019-05-06T06:33:12.723Z,10.75
2019-05-06T06:36:19.829Z,10.45
2019-05-06T06:39:20.466Z,11.03
2019-05-06T06:42:17.155Z,11.80
2019-05-06T06:45:13.489Z,10.38
2019-05-06T06:48:08.881Z,13.78
2019-05-06T06:51:04.245Z,9.08
2019-05-06T06:54:02.515Z,10.63
2019-05-06T06:57:09.296Z,11.43
2019-05-06T07:00:13.794Z,8.93
2019-05-06T07:03:12.552Z,10.00
2019-05-06T07:06:26.961Z,17.65
2019-05-06T07:09:23.484Z,13.70
2019-05-06T07:12:23.257Z,7.50
2019-05-06T07:15:22.208Z,13.32
2019-05-06T07:18:17.736Z,6.75
2019-05-06T07:21:34.757Z,8.78
2019-05-06T07:24:32.476Z,11.12
2019-05-06T07:27:29.365Z,10.10
2019-05-06T07:30:33.138Z,8.23
2019-05-06T07:33:28.689Z,8.58
2019-05-06T07:36:25.230Z,11.55
2019-05-06T07:39:23.778Z,7.65
2019-05-06T07:42:24.025Z,12.98
2019-05-06T07:45:37.377Z,10.68
2019-05-06T07:48:33.766Z,10.05
2019-05-06T07:51:32.469Z,10.75
2019-05-06T07:54:32.970Z,6.15
2019-05-06T07:57:29.707Z,7.50
2019-05-06T08:00:26.132Z,7.73
2019-05-06T08:03:22.304Z,5.07
2019-05-06T08:06:17.696Z,6.07
2019-05-06T08:09:13.936Z,11.00
2019-05-06T08:12:09.346Z,5.47
2019-05-06T08:15:06.320Z,8.73
2019-05-06T08:18:03.772Z,6.20
2019-05-06T08:21:02.724Z,5.40
2019-05-06T08:23:58.651Z,7.00
2019-05-06T08:26:55.276Z,6.80
2019-05-06T08:29:52.480Z,7.03
2019-05-06T08:32:48.192Z,4.13
2019-05-06T08:35:44.473Z,7.40
2019-05-06T08:38:59.703Z,10.90
2019-05-06T08:41:55.752Z,7.83
2019-05-06T08:44:53.015Z,4.87
2019-05-06T08:47:49.007Z,7.37
2019-05-06T08:50:52.954Z,7.77
2019-05-06T08:53:53.384Z,5.77
2019-05-06T08:56:52.321Z,4.57
2019-05-06T08:59:49.242Z,6.27
2019-05-06T09:02:46.250Z,6.20
2019-05-06T09:05:43.670Z,6.30
2019-05-06T09:08:39.064Z,6.33
2019-05-06T09:11:34.173Z,5.17
2019-05-06T09:14:29.114Z,7.90
2019-05-06T09:17:25.439Z,7.60
2019-05-06T09:20:23.439Z,9.88
2019-05-06T09:23:19.074Z,8.23
2019-05-06T09:26:17.439Z,7.23
2019-05-06T09:29:16.715Z,6.87
2019-05-06T09:32:17.303Z,7.07
2019-05-06T09:35:13.126Z,5.40
2019-05-06T09:38:09.355Z,4.60
2019-05-06T09:41:12.444Z,5.40
2019-05-06T09:44:08.668Z,4.00
2019-05-06T09:47:06.539Z,4.60
2019-05-06T09:50:03.161Z,6.92
2019-05-06T09:52:58.734Z,5.72
2019-05-06T09:56:13.334Z,8.60
2019-05-06T09:59:09.771Z,9.43
2019-05-06T10:02:05.885Z,5.22
2019-05-06T10:05:03.519Z,7.70
2019-05-06T10:07:59.155Z,6.62
2019-05-06T10:10:59.460Z,4.22
2019-05-06T10:13:52.541Z,8.53
2019-05-06T10:16:49.100Z,5.08
2019-05-06T10:19:45.044Z,9.53
2019-05-06T10:22:43.134Z,6.37
2019-05-06T10:25:40.025Z,7.20
2019-05-06T10:28:52.278Z,7.65
2019-05-06T10:31:53.666Z,9.88
2019-05-06T10:34:52.427Z,8.23
2019-05-06T10:38:12.240Z,7.17
2019-05-06T10:41:15.062Z,6.60
2019-05-06T10:44:47.077Z,8.98
2019-05-06T10:47:43.485Z,8.48
2019-05-06T10:50:44.928Z,7.55
2019-05-06T10:53:42.431Z,6.07
2019-05-06T10:56:53.041Z,5.03
2019-05-06T10:59:46.277Z,7.43
2019-05-06T11:02:53.235Z,7.53
2019-05-06T11:05:48.817Z,7.37
2019-05-06T11:08:45.043Z,7.43
2019-05-06T11:11:42.786Z,5.17
2019-05-06T11:14:38.464Z,4.53
2019-05-06T11:17:34.337Z,3.80
2019-05-06T11:20:29.808Z,7.97
2019-05-06T11:23:27.433Z,6.60
2019-05-06T11:26:23.666Z,5.57
2019-05-06T11:29:25.046Z,4.57
2019-05-06T11:32:44.439Z,6.20
2019-05-06T11:35:52.930Z,5.37
2019-05-06T11:38:52.139Z,3.77
2019-05-06T11:42:01.439Z,6.37
2019-05-06T11:44:45.218Z,5.00
2019-05-06T11:47:42.117Z,5.13
2019-05-06T11:50:37.648Z,6.43
2019-05-06T11:53:33.764Z,4.67
2019-05-06T11:56:32.546Z,7.07
2019-05-06T11:59:27.343Z,4.03
2019-05-06T12:02:23.945Z,5.67
2019-05-06T12:05:19.599Z,7.13
2019-05-06T12:08:15.762Z,6.83
2019-05-06T12:11:12.801Z,4.80
2019-05-06T12:14:12.873Z,4.17
2019-05-06T12:17:08.871Z,6.20
2019-05-06T12:20:05.915Z,4.20
2019-05-06T12:23:04.304Z,6.77
2019-05-06T12:25:59.069Z,7.00
2019-05-06T12:28:54.689Z,7.33
2019-05-06T12:31:59.062Z,6.23
2019-05-06T12:34:54.831Z,5.60
2019-05-06T12:37:53.147Z,7.30
2019-05-06T12:40:48.867Z,4.97
2019-05-06T12:43:48.863Z,6.17
2019-05-06T12:46:53.885Z,7.63
2019-05-06T12:49:50.062Z,8.10
2019-05-06T12:52:46.580Z,6.47
2019-05-06T12:55:43.137Z,5.40
2019-05-06T12:58:39.525Z,4.63
2019-05-06T13:01:34.747Z,4.57
2019-05-06T13:04:45.929Z,8.07
2019-05-06T13:07:37.296Z,5.40
2019-05-06T13:10:33.511Z,8.43
2019-05-06T13:13:29.694Z,6.30
2019-05-06T13:16:25.070Z,6.13
2019-05-06T13:19:22.633Z,7.12
2019-05-06T13:22:24.539Z,12.93
2019-05-06T13:25:23.203Z,4.87
2019-05-06T13:28:19.196Z,7.50
2019-05-06T13:31:21.518Z,4.97
2019-05-06T13:34:17.036Z,6.83
2019-05-06T13:37:12.928Z,5.70
2019-05-06T13:40:08.709Z,4.03
2019-05-06T13:43:26.426Z,5.63
2019-05-06T13:46:25.038Z,4.17
2019-05-06T13:49:26.373Z,4.70
2019-05-06T13:52:25.707Z,4.43
2019-05-06T13:55:23.051Z,4.63
2019-05-06T13:58:19.389Z,3.50
2019-05-06T14:01:19.275Z,6.97
2019-05-06T14:04:15.737Z,5.83
2019-05-06T14:07:13.069Z,6.17
2019-05-06T14:10:08.682Z,4.70
2019-05-06T14:13:04.247Z,8.50
2019-05-06T14:16:03.973Z,4.33
2019-05-06T14:19:03.984Z,6.80
2019-05-06T14:21:58.028Z,4.80
2019-05-06T14:25:12.768Z,7.50
2019-05-06T14:28:24.315Z,4.73
2019-05-06T14:31:44.477Z,7.90
2019-05-06T14:34:40.432Z,8.90
2019-05-06T14:37:41.984Z,5.53
2019-05-06T14:40:56.913Z,6.67
2019-05-06T14:43:53.270Z,7.17
2019-05-06T14:46:58.530Z,5.10
2019-05-06T14:49:54.553Z,4.40
2019-05-06T14:52:50.884Z,5.70
2019-05-06T14:55:50.048Z,5.60
2019-05-06T14:59:05.314Z,5.03
2019-05-06T15:02:02.622Z,5.20
2019-05-06T15:04:58.762Z,4.60
2019-05-06T15:07:54.073Z,6.17
2019-05-06T15:10:50.388Z,5.13
2019-05-06T15:13:45.964Z,3.67
2019-05-06T15:16:42.396Z,5.03
2019-05-06T15:19:38.254Z,6.97
2019-05-06T15:22:34.292Z,5.90
2019-05-06T15:25:32.510Z,5.53
2019-05-06T15:28:27.732Z,3.20
2019-05-06T15:31:48.113Z,5.23
2019-05-06T15:34:48.568Z,6.13
2019-05-06T15:37:56.161Z,4.30
2019-05-06T15:40:52.511Z,4.63
2019-05-06T15:43:47.960Z,6.63
2019-05-06T15:46:46.668Z,5.43
2019-05-06T15:49:42.817Z,8.80
2019-05-06T15:52:43.282Z,4.87
2019-05-06T15:55:38.050Z,3.33
2019-05-06T15:58:33.958Z,6.55
2019-05-06T16:01:33.234Z,7.58
2019-05-06T16:04:26.984Z,5.05
2019-05-06T16:07:25.885Z,4.12
2019-05-06T16:10:22.557Z,5.37
2019-05-06T16:13:19.170Z,3.12
2019-05-06T16:16:15.819Z,3.67
2019-05-06T16:19:12.973Z,4.17
2019-05-06T16:22:09.342Z,3.52
2019-05-06T16:25:09.927Z,3.87
2019-05-06T16:28:05.510Z,5.77
2019-05-06T16:31:02.508Z,4.58
2019-05-06T16:33:58.830Z,6.92
2019-05-06T16:36:55.533Z,4.40
2019-05-06T16:39:52.428Z,5.40
2019-05-06T16:42:49.523Z,4.28
2019-05-06T16:45:46.199Z,3.15
2019-05-06T16:48:45.007Z,3.72
2019-05-06T16:51:43.871Z,4.33
2019-05-06T16:54:39.191Z,7.90
2019-05-06T16:57:36.210Z,5.83
2019-05-06T17:00:33.592Z,4.47
2019-05-06T17:03:35.345Z,4.87
2019-05-06T17:06:34.606Z,4.60
2019-05-06T17:09:38.852Z,5.12
2019-05-06T17:12:36.367Z,3.17
2019-05-06T17:15:32.942Z,4.30
2019-05-06T17:18:28.908Z,5.15
2019-05-06T17:21:25.813Z,3.70
2019-05-06T17:24:27.098Z,3.75
2019-05-06T17:27:23.573Z,4.72
2019-05-06T17:30:37.634Z,3.02
2019-05-06T17:33:36.348Z,2.95
2019-05-06T17:36:36.655Z,5.33
2019-05-06T17:39:33.365Z,6.50
2019-05-06T17:42:28.608Z,5.17
2019-05-06T17:45:58.492Z,3.55
2019-05-06T17:49:12.938Z,3.77
2019-05-06T17:52:15.872Z,3.92
2019-05-06T17:55:12.633Z,4.30
2019-05-06T17:58:13.074Z,4.65
2019-05-06T18:01:12.408Z,3.77
2019-05-06T18:04:07.174Z,4.28
2019-05-06T18:07:02.616Z,4.62
2019-05-06T18:09:58.578Z,4.60
2019-05-06T18:12:54.177Z,5.60
2019-05-06T18:15:52.907Z,5.50
2019-05-06T18:18:48.527Z,7.58
2019-05-06T18:21:43.993Z,6.55
2019-05-06T18:24:40.223Z,6.00
2019-05-06T18:27:35.815Z,3.67
2019-05-06T18:30:34.425Z,6.95
2019-05-06T18:33:28.830Z,5.60
2019-05-06T18:36:24.730Z,3.35
2019-05-06T18:39:22.366Z,4.85
2019-05-06T18:42:20.393Z,7.10
2019-05-06T18:45:16.129Z,6.35
2019-05-06T18:48:12.623Z,5.12
2019-05-06T18:51:09.276Z,5.00
2019-05-06T18:54:05.962Z,8.08
2019-05-06T18:57:04.953Z,6.78
2019-05-06T19:00:02.937Z,5.05
2019-05-06T19:02:58.067Z,5.15
2019-05-06T19:05:54.593Z,5.25
2019-05-06T19:09:02.573Z,7.00
2019-05-06T19:12:03.771Z,5.10
2019-05-06T19:14:59.756Z,6.35
2019-05-06T19:17:55.766Z,6.80
2019-05-06T19:20:53.073Z,5.87
2019-05-06T19:23:48.998Z,5.20
2019-05-06T19:26:45.713Z,4.65
2019-05-06T19:29:43.277Z,8.90
2019-05-06T19:32:39.285Z,6.12
2019-05-06T19:35:37.069Z,7.83
2019-05-06T19:38:33.724Z,5.60
2019-05-06T19:41:29.493Z,7.03
2019-05-06T19:44:26.032Z,7.55
2019-05-06T19:47:22.500Z,5.85
2019-05-06T19:50:21.137Z,11.18
2019-05-06T19:53:16.081Z,8.23
2019-05-06T19:56:12.423Z,7.05
2019-05-06T19:59:08.949Z,6.17
2019-05-06T20:02:05.507Z,7.47
2019-05-06T20:05:04.686Z,9.48
2019-05-06T20:08:23.141Z,7.35
2019-05-06T20:11:30.507Z,6.33
2019-05-06T20:14:26.985Z,7.15
2019-05-06T20:17:23.312Z,5.37
2019-05-06T20:20:19.916Z,6.55
2019-05-06T20:23:15.347Z,7.90
2019-05-06T20:26:12.433Z,8.30
2019-05-06T20:29:08.228Z,7.92
2019-05-06T20:32:04.350Z,7.10
2019-05-06T20:35:00.123Z,7.17
2019-05-06T20:37:56.716Z,5.65
2019-05-06T20:40:53.000Z,7.87
2019-05-06T20:43:49.605Z,7.33
2019-05-06T20:46:45.139Z,6.08
2019-05-06T20:49:43.133Z,8.38
2019-05-06T20:52:39.814Z,7.00
2019-05-06T20:55:37.785Z,8.08
2019-05-06T20:58:33.608Z,7.90
2019-05-06T21:01:30.123Z,5.85
2019-05-06T21:04:25.571Z,10.40
2019-05-06T21:07:23.074Z,8.45
2019-05-06T21:10:18.463Z,9.65
2019-05-06T21:13:29.429Z,8.38
2019-05-06T21:16:18.799Z,7.17
2019-05-06T21:19:16.241Z,6.72
2019-05-06T21:22:13.233Z,8.53
2019-05-06T21:25:10.184Z,6.87
2019-05-06T21:28:06.775Z,7.45
2019-05-06T21:31:03.386Z,5.78
2019-05-06T21:34:00.671Z,6.90
2019-05-06T21:36:57.078Z,6.87
2019-05-06T21:39:53.036Z,5.50
2019-05-06T21:42:50.379Z,7.78
2019-05-06T21:45:45.780Z,5.58
2019-05-06T21:48:42.453Z,5.53
2019-05-06T21:51:42.487Z,11.43
2019-05-06T21:54:43.249Z,5.72
2019-05-06T21:57:39.400Z,8.93
2019-05-06T22:00:46.499Z,7.72
2019-05-06T22:03:43.391Z,7.70
2019-05-06T22:06:42.777Z,7.22
2019-05-06T22:09:37.715Z,8.15
2019-05-06T22:12:34.559Z,6.05
2019-05-06T22:15:32.433Z,7.47
2019-05-06T22:18:30.812Z,7.75
2019-05-06T22:21:25.990Z,9.43
2019-05-06T22:24:23.290Z,6.70
2019-05-06T22:27:19.150Z,6.90
2019-05-06T22:30:15.830Z,6.90
2019-05-06T22:33:15.258Z,6.58
2019-05-06T22:36:13.185Z,7.65
2019-05-06T22:39:11.867Z,8.65
2019-05-06T22:42:10.145Z,8.15
2019-05-06T22:45:06.224Z,7.78
2019-05-06T22:48:02.091Z,9.43
2019-05-06T22:50:59.213Z,8.40
2019-05-06T22:53:56.015Z,8.75
2019-05-06T22:56:54.388Z,7.42
2019-05-06T22:59:49.617Z,9.05
2019-05-06T23:02:55.595Z,13.10
2019-05-06T23:05:51.997Z,12.33
2019-05-06T23:08:48.413Z,14.83
2019-05-06T23:11:45.757Z,10.28
2019-05-06T23:14:42.161Z,9.83
2019-05-06T23:17:38.116Z,10.65
2019-05-06T23:20:34.975Z,10.10
2019-05-06T23:23:32.934Z,12.73
2019-05-06T23:26:28.139Z,9.50
2019-05-06T23:29:23.785Z,18.27
2019-05-06T23:32:19.388Z,13.35
2019-05-06T23:35:14.959Z,11.50
2019-05-06T23:39:06.147Z,16.32
2019-05-06T23:42:59.114Z,11.78
2019-05-06T23:46:48.443Z,13.72
2019-05-06T23:50:38.381Z,13.55
2019-05-06T23:54:28.565Z,7.87
2019-05-06T23:57:22.533Z,10.68
